createdAt,value
2023-02-27T00:00:14.954Z,6.00
2023-02-27T00:03:02.757Z,6.30
2023-02-27T00:05:30.573Z,6.50
2023-02-27T00:07:58.316Z,6.90
2023-02-27T00:10:26.108Z,7.10
2023-02-27T00:12:53.930Z,7.50
2023-02-27T00:15:22.612Z,6.60
2023-02-27T00:17:50.423Z,7.30
2023-02-27T00:20:19.479Z,6.70
2023-02-27T00:22:53.799Z,7.70
2023-02-27T00:25:21.510Z,6.50
2023-02-27T00:27:49.329Z,6.90
2023-02-27T00:30:23.754Z,7.60
2023-02-27T00:32:51.398Z,7.30
2023-02-27T00:35:19.336Z,7.50
2023-02-27T00:37:47.312Z,7.20
2023-02-27T00:40:15.256Z,7.10
2023-02-27T00:42:43.265Z,8.10
2023-02-27T00:45:11.051Z,7.70
2023-02-27T00:47:38.933Z,6.40
2023-02-27T00:50:07.165Z,7.60
2023-02-27T00:52:34.980Z,7.20
2023-02-27T00:55:03.014Z,5.50
2023-02-27T00:57:30.848Z,6.40
2023-02-27T00:59:58.834Z,6.70
2023-02-27T01:02:27.014Z,6.50
2023-02-27T01:04:56.690Z,5.40
2023-02-27T01:07:24.985Z,4.70
2023-02-27T01:10:00.973Z,6.20
2023-02-27T01:12:35.992Z,6.10
2023-02-27T01:15:11.240Z,5.60
2023-02-27T01:17:42.829Z,5.50
2023-02-27T01:20:12.245Z,5.50
2023-02-27T01:22:40.168Z,5.00
2023-02-27T01:25:08.565Z,5.40
2023-02-27T01:27:40.887Z,7.00
2023-02-27T01:30:11.351Z,6.90
2023-02-27T01:32:49.387Z,6.20
2023-02-27T01:35:17.990Z,7.20
2023-02-27T01:37:45.741Z,6.50
2023-02-27T01:40:13.733Z,6.90
2023-02-27T01:42:41.382Z,6.10
2023-02-27T01:45:12.248Z,5.60
2023-02-27T01:47:42.629Z,6.70
2023-02-27T01:50:10.715Z,6.70
2023-02-27T01:52:39.764Z,7.20
2023-02-27T01:55:08.807Z,6.60
2023-02-27T01:57:36.723Z,6.10
2023-02-27T02:00:06.193Z,5.10
2023-02-27T02:02:42.654Z,5.20
2023-02-27T02:05:10.741Z,5.60
2023-02-27T02:07:39.846Z,4.90
2023-02-27T02:10:08.091Z,4.10
2023-02-27T02:12:36.844Z,4.50
2023-02-27T02:15:06.157Z,5.20
2023-02-27T02:17:47.980Z,4.40
2023-02-27T02:20:21.790Z,5.70
2023-02-27T02:22:49.454Z,6.40
2023-02-27T02:25:26.553Z,5.80
2023-02-27T02:27:57.168Z,5.60
2023-02-27T02:30:37.342Z,5.80
2023-02-27T02:33:14.557Z,5.40
2023-02-27T02:35:53.442Z,4.70
2023-02-27T02:38:41.466Z,5.20
2023-02-27T02:41:11.871Z,5.00
2023-02-27T02:43:40.660Z,4.80
2023-02-27T02:46:10.201Z,5.00
2023-02-27T02:48:45.694Z,5.90
2023-02-27T02:51:22.620Z,5.50
2023-02-27T02:54:01.611Z,4.80
2023-02-27T02:56:35.747Z,5.00
2023-02-27T02:59:06.466Z,5.30
2023-02-27T03:01:37.472Z,6.00
2023-02-27T03:04:05.287Z,5.20
2023-02-27T03:06:34.517Z,5.30
2023-02-27T03:09:06.116Z,5.20
2023-02-27T03:11:36.189Z,5.00
2023-02-27T03:14:08.997Z,5.80
2023-02-27T03:16:47.688Z,4.80
2023-02-27T03:19:33.830Z,5.00
2023-02-27T03:22:15.139Z,5.50
2023-02-27T03:24:49.088Z,4.60
2023-02-27T03:27:18.654Z,4.30
2023-02-27T03:29:52.915Z,5.50
2023-02-27T03:32:42.617Z,5.00
2023-02-27T03:35:12.076Z,5.40
2023-02-27T03:37:45.944Z,4.40
2023-02-27T03:40:26.012Z,3.70
2023-02-27T03:42:53.668Z,4.60
2023-02-27T03:45:26.347Z,4.70
2023-02-27T03:47:54.397Z,4.80
2023-02-27T03:50:22.715Z,5.30
2023-02-27T03:52:51.045Z,4.80
2023-02-27T03:55:25.173Z,4.50
2023-02-27T03:57:53.751Z,5.50
2023-02-27T04:00:22.940Z,5.40
2023-02-27T04:02:51.662Z,5.10
2023-02-27T04:05:29.947Z,6.50
2023-02-27T04:08:24.116Z,7.10
2023-02-27T04:11:10.020Z,7.80
2023-02-27T04:13:54.032Z,9.00
2023-02-27T04:16:39.745Z,9.00
2023-02-27T04:19:19.868Z,8.50
2023-02-27T04:21:53.800Z,9.00
2023-02-27T04:24:27.681Z,6.80
2023-02-27T04:26:59.514Z,5.80
2023-02-27T04:29:48.500Z,6.80
2023-02-27T04:32:36.554Z,6.80
2023-02-27T04:35:10.050Z,5.80
2023-02-27T04:37:43.523Z,6.40
2023-02-27T04:40:15.306Z,6.50
2023-02-27T04:42:48.153Z,5.90
2023-02-27T04:45:19.101Z,6.90
2023-02-27T04:47:49.266Z,9.60
2023-02-27T04:50:20.606Z,7.90
2023-02-27T04:52:51.558Z,8.70
2023-02-27T04:55:27.509Z,8.80
2023-02-27T04:58:07.855Z,10.30
2023-02-27T05:00:37.516Z,9.40
2023-02-27T05:03:18.766Z,12.60
2023-02-27T05:05:51.833Z,14.40
2023-02-27T05:08:28.340Z,13.60
2023-02-27T05:11:09.280Z,10.20
2023-02-27T05:13:48.050Z,10.90
2023-02-27T05:16:24.933Z,8.70
2023-02-27T05:18:53.463Z,9.00
2023-02-27T05:21:24.872Z,8.50
2023-02-27T05:23:58.908Z,7.10
2023-02-27T05:29:05.541Z,5.90
2023-02-27T05:31:54.732Z,7.20
2023-02-27T05:34:27.879Z,6.70
2023-02-27T05:36:56.235Z,7.40
2023-02-27T05:39:26.134Z,6.80
2023-02-27T05:41:56.560Z,6.70
2023-02-27T05:44:27.320Z,5.80
2023-02-27T05:47:15.182Z,6.70
2023-02-27T05:49:45.468Z,6.70
2023-02-27T05:52:16.409Z,7.80
2023-02-27T05:54:47.688Z,7.10
2023-02-27T05:57:17.722Z,7.50
2023-02-27T06:00:08.754Z,7.00
2023-02-27T06:02:45.494Z,6.50
2023-02-27T06:05:14.478Z,6.30
2023-02-27T06:07:42.259Z,5.50
2023-02-27T06:10:19.891Z,8.40
2023-02-27T06:12:47.666Z,11.50
2023-02-27T06:15:16.688Z,14.60
2023-02-27T06:17:44.312Z,12.70
2023-02-27T06:20:12.472Z,11.10
2023-02-27T06:22:40.203Z,10.00
2023-02-27T06:25:08.255Z,9.90
2023-02-27T06:27:36.028Z,9.60
2023-02-27T06:30:04.241Z,9.30
2023-02-27T06:32:31.937Z,8.80
2023-02-27T06:35:06.821Z,8.80
2023-02-27T06:37:34.768Z,8.30
2023-02-27T06:40:02.662Z,9.00
2023-02-27T06:42:30.317Z,8.60
2023-02-27T06:44:58.049Z,9.70
2023-02-27T06:47:26.622Z,9.50
2023-02-27T06:49:54.446Z,11.10
2023-02-27T06:52:22.282Z,8.90
2023-02-27T06:54:49.882Z,7.40
2023-02-27T06:57:17.831Z,8.10
2023-02-27T06:59:45.596Z,7.00
2023-02-27T07:02:13.966Z,8.00
2023-02-27T07:04:42.218Z,8.70
2023-02-27T07:07:36.418Z,9.50
2023-02-27T07:09:58.363Z,10.40
2023-02-27T07:12:30.310Z,10.50
2023-02-27T07:14:58.141Z,11.00
2023-02-27T07:17:25.897Z,10.80
2023-02-27T07:19:54.663Z,10.20
2023-02-27T07:22:22.534Z,10.80
2023-02-27T07:24:50.222Z,10.70
2023-02-27T07:27:17.938Z,9.80
2023-02-27T07:29:46.361Z,11.50
2023-02-27T07:32:14.555Z,10.90
2023-02-27T07:34:42.386Z,9.50
2023-02-27T07:37:16.536Z,9.40
2023-02-27T07:39:45.171Z,10.70
2023-02-27T07:42:13.088Z,11.60
2023-02-27T07:44:41.169Z,14.20
2023-02-27T07:47:15.264Z,17.70
2023-02-27T07:49:43.753Z,15.90
2023-02-27T07:52:11.627Z,15.70
2023-02-27T07:54:39.398Z,16.90
2023-02-27T07:57:07.156Z,14.30
2023-02-27T07:59:34.862Z,9.00
2023-02-27T08:02:02.636Z,10.00
2023-02-27T08:04:30.646Z,8.50
2023-02-27T08:06:58.404Z,8.20
2023-02-27T08:09:26.407Z,8.20
2023-02-27T08:11:54.060Z,6.00
2023-02-27T08:14:21.786Z,6.40
2023-02-27T08:16:55.646Z,5.70
2023-02-27T08:19:23.356Z,5.80
2023-02-27T08:21:51.090Z,6.80
2023-02-27T08:24:18.900Z,6.40
2023-02-27T08:26:53.372Z,7.80
2023-02-27T08:29:21.133Z,6.90
2023-02-27T08:31:49.115Z,9.70
2023-02-27T08:34:17.015Z,10.00
2023-02-27T08:36:45.185Z,6.70
2023-02-27T08:39:13.020Z,4.60
2023-02-27T08:41:45.084Z,6.10
2023-02-27T08:44:13.128Z,4.40
2023-02-27T08:46:41.000Z,3.90
2023-02-27T08:49:08.713Z,4.40
2023-02-27T08:51:36.401Z,5.00
2023-02-27T08:54:04.235Z,6.20
2023-02-27T08:56:34.572Z,7.60
2023-02-27T08:59:02.730Z,5.60
2023-02-27T09:01:34.647Z,5.80
2023-02-27T09:04:03.213Z,5.30
2023-02-27T09:06:37.500Z,5.40
2023-02-27T09:09:05.670Z,4.50
2023-02-27T09:11:33.736Z,6.70
2023-02-27T09:14:01.544Z,4.90
2023-02-27T09:16:29.778Z,5.00
2023-02-27T09:18:57.714Z,5.10
2023-02-27T09:21:25.389Z,6.00
2023-02-27T09:23:53.207Z,7.00
2023-02-27T09:26:24.542Z,5.20
2023-02-27T09:29:01.463Z,5.10
2023-02-27T09:31:33.251Z,4.20
2023-02-27T09:34:01.830Z,3.20
2023-02-27T09:36:29.932Z,2.90
2023-02-27T09:38:58.624Z,2.50
2023-02-27T09:41:45.424Z,3.20
2023-02-27T09:44:30.654Z,3.70
2023-02-27T09:47:05.808Z,4.10
2023-02-27T09:49:41.694Z,2.30
2023-02-27T09:52:13.520Z,4.80
2023-02-27T09:54:42.601Z,2.30
2023-02-27T09:57:18.799Z,2.70
2023-02-27T09:59:53.340Z,1.90
2023-02-27T10:02:40.110Z,1.70
2023-02-27T10:05:10.779Z,1.70
2023-02-27T10:07:41.722Z,2.10
2023-02-27T10:10:18.931Z,2.70
2023-02-27T10:13:05.516Z,3.30
2023-02-27T10:15:37.629Z,2.90
2023-02-27T10:18:25.570Z,1.90
2023-02-27T10:20:56.505Z,2.60
2023-02-27T10:23:43.520Z,1.80
2023-02-27T10:26:19.275Z,2.90
2023-02-27T10:28:47.184Z,2.50
2023-02-27T10:31:18.169Z,2.10
2023-02-27T10:33:48.387Z,2.10
2023-02-27T10:36:33.484Z,2.20
2023-02-27T10:39:04.650Z,1.70
2023-02-27T10:41:33.313Z,2.10
2023-02-27T10:44:01.207Z,2.50
2023-02-27T10:46:31.141Z,2.00
2023-02-27T10:49:00.566Z,2.10
2023-02-27T10:51:31.486Z,2.90
2023-02-27T10:54:34.685Z,2.90
2023-02-27T10:57:03.158Z,2.40
2023-02-27T10:59:38.354Z,3.50
2023-02-27T11:02:20.941Z,3.30
2023-02-27T11:04:53.793Z,2.80
2023-02-27T11:07:33.585Z,3.10
2023-02-27T11:10:03.270Z,2.60
2023-02-27T11:12:38.641Z,2.70
2023-02-27T11:15:15.602Z,3.30
2023-02-27T11:17:43.874Z,3.10
2023-02-27T11:20:31.958Z,3.10
2023-02-27T11:23:07.711Z,3.30
2023-02-27T11:25:36.076Z,2.50
2023-02-27T11:28:24.408Z,3.50
2023-02-27T11:30:57.246Z,3.00
2023-02-27T11:33:26.334Z,3.00
2023-02-27T11:35:57.344Z,3.30
2023-02-27T11:38:27.728Z,3.90
2023-02-27T11:41:05.792Z,2.80
2023-02-27T11:43:48.452Z,3.40
2023-02-27T11:46:41.692Z,3.30
2023-02-27T11:49:26.034Z,2.70
2023-02-27T11:52:20.370Z,2.50
2023-02-27T11:54:56.003Z,2.50
2023-02-27T11:57:24.196Z,2.80
2023-02-27T12:00:01.691Z,4.90
2023-02-27T12:02:48.133Z,2.30
2023-02-27T12:05:22.687Z,2.30
2023-02-27T12:10:24.205Z,2.60
2023-02-27T12:12:53.925Z,2.40
2023-02-27T12:15:27.804Z,4.10
2023-02-27T12:18:11.054Z,2.90
2023-02-27T12:20:45.956Z,2.70
2023-02-27T12:23:33.994Z,2.10
2023-02-27T12:26:05.665Z,2.80
2023-02-27T12:28:37.624Z,2.90
2023-02-27T12:31:24.118Z,2.30
2023-02-27T12:33:54.982Z,2.90
2023-02-27T12:36:29.000Z,2.70
2023-02-27T12:38:56.929Z,2.70
2023-02-27T12:41:36.812Z,2.50
2023-02-27T12:44:18.851Z,2.80
2023-02-27T12:46:58.852Z,3.50
2023-02-27T12:49:32.808Z,2.30
2023-02-27T12:55:01.588Z,4.00
2023-02-27T12:57:32.639Z,3.00
2023-02-27T13:00:19.772Z,3.10
2023-02-27T13:02:54.125Z,5.00
2023-02-27T13:05:32.473Z,3.30
2023-02-27T13:08:15.185Z,2.30
2023-02-27T13:10:45.486Z,2.60
2023-02-27T13:13:20.652Z,3.10
2023-02-27T13:15:57.298Z,2.50
2023-02-27T13:18:31.325Z,2.90
2023-02-27T13:21:12.706Z,3.40
2023-02-27T13:24:03.406Z,3.10
2023-02-27T13:26:34.507Z,2.50
2023-02-27T13:29:03.214Z,2.70
2023-02-27T13:31:50.223Z,5.30
2023-02-27T13:34:29.864Z,5.10
2023-02-27T13:37:08.824Z,3.60
2023-02-27T13:39:37.115Z,5.30
2023-02-27T13:42:05.379Z,3.70
2023-02-27T13:44:36.101Z,2.80
2023-02-27T13:47:23.832Z,5.00
2023-02-27T13:49:51.564Z,2.50
2023-02-27T13:52:27.995Z,3.00
2023-02-27T13:54:59.880Z,2.20
2023-02-27T13:57:35.225Z,2.20
2023-02-27T14:00:09.255Z,2.80
2023-02-27T14:02:57.767Z,2.60
2023-02-27T14:05:30.254Z,2.70
2023-02-27T14:08:17.115Z,2.70
2023-02-27T14:10:57.483Z,2.70
2023-02-27T14:13:44.346Z,2.70
2023-02-27T14:16:12.943Z,2.40
2023-02-27T14:18:58.508Z,2.10
2023-02-27T14:21:45.253Z,2.60
2023-02-27T14:24:15.043Z,2.00
2023-02-27T14:26:46.492Z,2.30
2023-02-27T14:29:17.031Z,2.50
2023-02-27T14:31:45.123Z,4.40
2023-02-27T14:34:19.952Z,3.30
2023-02-27T14:36:51.829Z,9.70
2023-02-27T14:39:23.467Z,3.80
2023-02-27T14:42:10.485Z,3.30
2023-02-27T14:44:40.437Z,2.90
2023-02-27T14:47:13.214Z,1.80
2023-02-27T14:52:35.096Z,2.50
2023-02-27T14:55:32.660Z,2.00
2023-02-27T14:58:24.464Z,2.70
2023-02-27T15:01:02.534Z,2.80
2023-02-27T15:03:44.289Z,2.70
2023-02-27T15:06:14.124Z,2.70
2023-02-27T15:08:42.494Z,3.20
2023-02-27T15:11:14.176Z,2.80
2023-02-27T15:13:43.742Z,3.40
2023-02-27T15:16:21.200Z,3.50
2023-02-27T15:18:50.992Z,3.20
2023-02-27T15:21:20.254Z,10.90
2023-02-27T15:24:14.482Z,3.40
2023-02-27T15:26:43.142Z,3.70
2023-02-27T15:29:16.959Z,3.90
2023-02-27T15:31:45.806Z,5.30
2023-02-27T15:34:15.054Z,5.30
2023-02-27T15:36:52.256Z,11.30
2023-02-27T15:39:24.656Z,14.40
2023-02-27T15:41:53.441Z,18.30
2023-02-27T15:44:25.484Z,31.90
2023-02-27T15:46:53.768Z,22.70
2023-02-27T15:49:23.299Z,18.50
2023-02-27T15:51:55.629Z,14.90
2023-02-27T15:54:23.465Z,11.90
2023-02-27T15:56:52.078Z,12.10
2023-02-27T15:59:20.107Z,11.60
2023-02-27T16:01:50.367Z,11.20
2023-02-27T16:04:22.705Z,18.20
2023-02-27T16:06:53.061Z,19.20
2023-02-27T16:09:30.458Z,20.20
2023-02-27T16:12:17.047Z,26.00
2023-02-27T16:14:45.313Z,21.50
2023-02-27T16:17:32.897Z,27.90
2023-02-27T16:20:02.651Z,65.00
2023-02-27T16:22:30.558Z,67.90
2023-02-27T16:25:08.127Z,141.10
2023-02-27T16:27:36.462Z,98.80
2023-02-27T16:30:09.975Z,64.30
2023-02-27T16:32:42.702Z,43.90
2023-02-27T16:35:19.125Z,29.60
2023-02-27T16:38:03.736Z,24.60
2023-02-27T16:40:31.600Z,16.20
2023-02-27T16:43:01.783Z,12.10
2023-02-27T16:45:31.305Z,10.30
2023-02-27T16:47:59.929Z,8.50
2023-02-27T16:50:29.310Z,8.90
2023-02-27T16:52:57.612Z,9.00
2023-02-27T16:55:25.983Z,8.60
2023-02-27T16:57:53.817Z,8.80
2023-02-27T17:00:22.774Z,7.30
2023-02-27T17:02:51.227Z,6.10
2023-02-27T17:05:19.202Z,5.60
2023-02-27T17:07:47.232Z,5.50
2023-02-27T17:10:19.155Z,4.80
2023-02-27T17:12:48.013Z,5.00
2023-02-27T17:15:16.155Z,5.50
2023-02-27T17:17:44.325Z,5.70
2023-02-27T17:20:12.998Z,6.50
2023-02-27T17:22:44.742Z,6.40
2023-02-27T17:25:13.271Z,6.70
2023-02-27T17:27:44.236Z,7.80
2023-02-27T17:30:12.412Z,7.50
2023-02-27T17:32:44.009Z,5.50
2023-02-27T17:35:11.763Z,6.30
2023-02-27T17:37:39.506Z,8.40
2023-02-27T17:40:11.936Z,9.20
2023-02-27T17:42:40.231Z,9.90
2023-02-27T17:45:28.434Z,8.80
2023-02-27T17:47:56.485Z,9.60
2023-02-27T17:59:02.221Z,12.60
2023-02-27T18:01:30.269Z,13.60
2023-02-27T18:03:58.485Z,13.80
2023-02-27T18:06:26.529Z,15.80
2023-02-27T18:08:54.769Z,15.40
2023-02-27T18:13:56.767Z,19.60
2023-02-27T18:16:25.167Z,17.70
2023-02-27T18:18:53.122Z,16.50
2023-02-27T18:21:22.920Z,14.80
2023-02-27T18:23:51.494Z,13.30
2023-02-27T18:26:29.502Z,14.10
2023-02-27T18:29:02.770Z,15.10
2023-02-27T18:31:35.460Z,17.50
2023-02-27T18:34:03.728Z,19.80
2023-02-27T18:36:32.658Z,22.90
2023-02-27T18:39:00.469Z,24.70
2023-02-27T18:41:29.431Z,24.50
2023-02-27T18:43:58.717Z,22.00
2023-02-27T18:46:27.449Z,22.20
2023-02-27T18:48:55.816Z,20.50
2023-02-27T18:51:23.871Z,24.00
2023-02-27T18:53:52.006Z,39.40
2023-02-27T18:56:22.993Z,52.20
2023-02-27T18:58:51.419Z,57.30
2023-02-27T19:01:28.952Z,59.60
2023-02-27T19:04:03.438Z,42.70
2023-02-27T19:06:33.159Z,49.10
2023-02-27T19:09:01.230Z,103.20
2023-02-27T19:11:33.478Z,90.80
2023-02-27T19:14:15.991Z,73.10
2023-02-27T19:16:44.351Z,75.10
2023-02-27T19:19:12.298Z,86.00
2023-02-27T19:21:40.211Z,91.90
2023-02-27T19:28:18.649Z,81.80
2023-02-27T19:35:18.433Z,108.40
2023-02-27T19:37:50.649Z,108.20
2023-02-27T19:40:19.284Z,111.50
2023-02-27T19:42:47.925Z,123.00
2023-02-27T19:45:16.006Z,116.20
2023-02-27T19:47:44.262Z,150.90
2023-02-27T19:50:12.843Z,133.30
2023-02-27T19:52:40.552Z,138.50
2023-02-27T19:55:11.733Z,148.90
2023-02-27T19:57:39.589Z,170.50
2023-02-27T20:00:29.758Z,150.90
2023-02-27T20:02:57.768Z,173.90
2023-02-27T20:05:26.309Z,171.30
2023-02-27T20:07:54.438Z,175.20
2023-02-27T20:10:22.251Z,168.80
2023-02-27T20:12:50.789Z,175.00
2023-02-27T20:15:19.454Z,172.80
2023-02-27T20:17:47.421Z,145.00
2023-02-27T20:20:15.251Z,151.80
2023-02-27T20:22:43.772Z,147.00
2023-02-27T20:25:12.051Z,132.50
2023-02-27T20:27:40.113Z,137.50
2023-02-27T20:30:08.478Z,90.80
2023-02-27T20:32:39.743Z,118.60
2023-02-27T20:35:07.877Z,84.50
2023-02-27T20:37:36.178Z,72.20
2023-02-27T20:40:04.528Z,55.20
2023-02-27T20:42:32.606Z,58.10
2023-02-27T20:45:00.308Z,42.40
2023-02-27T20:47:28.679Z,43.50
2023-02-27T20:49:56.987Z,44.40
2023-02-27T20:52:35.583Z,21.30
2023-02-27T20:55:03.439Z,18.10
2023-02-27T20:57:33.521Z,19.40
2023-02-27T21:00:01.597Z,47.20
2023-02-27T21:02:29.550Z,23.10
2023-02-27T21:04:58.346Z,17.30
2023-02-27T21:07:26.275Z,15.80
2023-02-27T21:09:57.780Z,15.60
2023-02-27T21:12:31.700Z,20.70
2023-02-27T21:17:33.773Z,51.50
2023-02-27T21:20:06.871Z,53.20
2023-02-27T21:22:38.814Z,49.40
2023-02-27T21:25:06.663Z,50.10
2023-02-27T21:27:34.637Z,60.00
2023-02-27T21:30:02.508Z,75.50
2023-02-27T21:32:30.319Z,78.80
2023-02-27T21:34:57.973Z,74.10
2023-02-27T21:37:25.782Z,62.30
2023-02-27T21:39:56.724Z,63.40
2023-02-27T21:42:24.448Z,48.50
2023-02-27T21:44:52.178Z,36.50
2023-02-27T21:47:20.871Z,55.30
2023-02-27T21:49:48.918Z,34.20
2023-02-27T21:52:16.593Z,24.20
2023-02-27T21:54:44.198Z,26.60
2023-02-27T21:57:11.954Z,17.50
2023-02-27T21:59:41.727Z,20.70
2023-02-27T22:02:13.510Z,18.00
2023-02-27T22:04:41.123Z,19.50
2023-02-27T22:07:11.323Z,26.30
2023-02-27T22:09:39.341Z,30.70
2023-02-27T22:12:07.131Z,87.90
2023-02-27T22:14:36.934Z,106.60
2023-02-27T22:17:04.558Z,119.70
2023-02-27T22:19:32.331Z,128.60
2023-02-27T22:22:00.242Z,133.30
2023-02-27T22:24:30.839Z,140.10
2023-02-27T22:26:58.825Z,134.20
2023-02-27T22:29:27.118Z,126.60
2023-02-27T22:31:55.236Z,116.80
2023-02-27T22:34:23.124Z,97.00
2023-02-27T22:36:52.736Z,73.30
2023-02-27T22:39:27.353Z,106.20
2023-02-27T22:41:56.829Z,79.80
2023-02-27T22:44:24.969Z,78.00
2023-02-27T22:46:54.677Z,105.80
2023-02-27T22:49:23.611Z,85.10
2023-02-27T22:51:58.169Z,76.80
2023-02-27T22:54:32.187Z,99.30
2023-02-27T22:59:34.127Z,102.20
2023-02-27T23:02:10.344Z,98.50
2023-02-27T23:04:38.134Z,97.50
2023-02-27T23:07:05.834Z,92.50
2023-02-27T23:09:33.628Z,96.40
2023-02-27T23:12:03.669Z,97.10
2023-02-27T23:14:31.425Z,117.90
2023-02-27T23:16:59.062Z,165.30
2023-02-27T23:19:26.754Z,234.20
2023-02-27T23:21:58.477Z,274.20
2023-02-27T23:24:26.183Z,254.20
2023-02-27T23:26:54.125Z,274.70
2023-02-27T23:29:21.910Z,324.00
2023-02-27T23:31:50.010Z,346.40
2023-02-27T23:34:17.885Z,179.60
2023-02-27T23:36:45.576Z,252.70
2023-02-27T23:39:13.386Z,315.70
2023-02-27T23:41:41.662Z,320.80
2023-02-27T23:44:28.309Z,308.80
2023-02-27T23:46:55.965Z,281.00
2023-02-27T23:49:30.383Z,270.70
2023-02-27T23:52:02.320Z,257.00
2023-02-27T23:54:30.076Z,232.00
2023-02-27T23:56:57.731Z,208.90
2023-02-27T23:59:27.746Z,197.60
